createdAt,value
2023-11-19T00:00:35.074Z,19.52
2023-11-19T00:03:03.352Z,22.75
2023-11-19T00:05:31.439Z,20.38
2023-11-19T00:07:59.347Z,25.67
2023-11-19T00:10:27.255Z,21.80
2023-11-19T00:12:58.009Z,22.27
2023-11-19T00:15:26.638Z,23.20
2023-11-19T00:17:54.693Z,24.63
2023-11-19T00:20:23.882Z,23.88
2023-11-19T00:22:53.493Z,22.67
2023-11-19T00:25:23.068Z,23.42
2023-11-19T00:27:52.258Z,20.42
2023-11-19T00:30:21.519Z,23.30
2023-11-19T00:32:49.821Z,25.05
2023-11-19T00:35:17.766Z,25.00
2023-11-19T00:37:46.701Z,20.73
2023-11-19T00:40:16.827Z,23.10
2023-11-19T00:42:45.102Z,22.60
2023-11-19T00:45:14.160Z,23.88
2023-11-19T00:47:44.057Z,29.08
2023-11-19T00:50:12.797Z,26.77
2023-11-19T00:52:41.266Z,26.30
2023-11-19T00:55:09.742Z,29.30
2023-11-19T00:57:37.765Z,31.60
2023-11-19T01:00:16.378Z,28.30
2023-11-19T01:02:45.716Z,29.23
2023-11-19T01:07:43.014Z,28.92
2023-11-19T01:10:11.515Z,30.88
2023-11-19T01:12:39.351Z,32.77
2023-11-19T01:15:08.152Z,34.67
2023-11-19T01:17:36.225Z,32.80
2023-11-19T01:20:07.752Z,30.98
2023-11-19T01:22:36.537Z,33.90
2023-11-19T01:25:06.422Z,37.92
2023-11-19T01:27:35.657Z,33.10
2023-11-19T01:30:04.726Z,33.13
2023-11-19T01:32:32.607Z,35.55
2023-11-19T01:35:00.600Z,36.63
2023-11-19T01:37:29.933Z,39.08
2023-11-19T01:39:59.318Z,37.22
2023-11-19T01:42:28.603Z,37.67
2023-11-19T01:45:01.367Z,36.10
2023-11-19T01:47:30.509Z,40.33
2023-11-19T01:49:59.091Z,36.03
2023-11-19T01:52:29.142Z,39.90
2023-11-19T01:54:57.241Z,40.72
2023-11-19T01:57:25.840Z,39.45
2023-11-19T01:59:54.942Z,35.83
2023-11-19T02:02:23.121Z,36.03
2023-11-19T02:04:53.056Z,39.10
2023-11-19T02:07:21.537Z,34.25
2023-11-19T02:09:50.810Z,38.77
2023-11-19T02:12:19.228Z,36.65
2023-11-19T02:14:47.057Z,38.37
2023-11-19T02:17:28.218Z,32.72
2023-11-19T02:19:56.194Z,35.90
2023-11-19T02:22:24.610Z,38.25
2023-11-19T02:25:00.846Z,33.53
2023-11-19T02:27:40.560Z,34.97
2023-11-19T02:30:10.183Z,36.05
2023-11-19T02:32:39.904Z,41.70
2023-11-19T02:35:09.907Z,32.72
2023-11-19T02:37:37.981Z,38.22
2023-11-19T02:40:09.753Z,36.85
2023-11-19T02:42:37.717Z,32.90
2023-11-19T02:45:08.549Z,30.92
2023-11-19T02:47:36.927Z,37.55
2023-11-19T02:50:05.180Z,29.57
2023-11-19T02:52:36.157Z,31.90
2023-11-19T02:55:04.225Z,34.60
2023-11-19T02:57:34.821Z,32.88
2023-11-19T03:00:05.849Z,33.72
2023-11-19T03:02:44.974Z,31.83
2023-11-19T03:05:13.245Z,26.40
2023-11-19T03:07:41.066Z,31.45
2023-11-19T03:10:10.174Z,35.08
2023-11-19T03:12:38.044Z,32.40
2023-11-19T03:15:06.665Z,33.13
2023-11-19T03:17:35.891Z,33.75
2023-11-19T03:20:03.780Z,31.88
2023-11-19T03:22:31.763Z,30.35
2023-11-19T03:24:59.621Z,36.55
2023-11-19T03:27:27.567Z,28.08
2023-11-19T03:29:55.467Z,29.50
2023-11-19T03:32:23.269Z,29.75
2023-11-19T03:34:52.452Z,32.70
2023-11-19T03:37:20.698Z,37.42
2023-11-19T03:39:48.509Z,27.60
2023-11-19T03:42:16.309Z,24.52
2023-11-19T03:44:44.097Z,29.27
2023-11-19T03:47:11.895Z,26.88
2023-11-19T03:49:39.766Z,27.77
2023-11-19T03:52:10.448Z,31.42
2023-11-19T03:54:48.173Z,28.60
2023-11-19T03:57:16.728Z,31.70
2023-11-19T03:59:44.947Z,34.42
2023-11-19T04:02:12.992Z,34.20
2023-11-19T04:04:40.958Z,30.13
2023-11-19T04:07:10.257Z,28.20
2023-11-19T04:09:38.563Z,26.95
2023-11-19T04:12:07.785Z,30.33
2023-11-19T04:14:35.676Z,24.40
2023-11-19T04:17:03.593Z,30.52
2023-11-19T04:19:33.751Z,31.42
2023-11-19T04:22:01.956Z,28.67
2023-11-19T04:24:32.786Z,30.20
2023-11-19T04:27:00.623Z,31.52
2023-11-19T04:29:28.456Z,31.92
2023-11-19T04:31:56.248Z,24.75
2023-11-19T04:34:24.112Z,31.00
2023-11-19T04:36:51.930Z,27.63
2023-11-19T04:39:20.052Z,35.20
2023-11-19T04:41:50.188Z,26.17
2023-11-19T04:44:18.526Z,35.95
2023-11-19T04:46:46.759Z,27.52
2023-11-19T04:49:15.705Z,36.40
2023-11-19T04:51:44.216Z,36.90
2023-11-19T04:54:12.566Z,28.80
2023-11-19T04:56:40.750Z,31.42
2023-11-19T04:59:10.241Z,32.60
2023-11-19T05:01:38.281Z,33.25
2023-11-19T05:04:06.341Z,28.70
2023-11-19T05:06:34.374Z,36.35
2023-11-19T05:09:06.798Z,34.13
2023-11-19T05:11:35.213Z,34.90
2023-11-19T05:14:05.984Z,37.40
2023-11-19T05:16:36.347Z,33.13
2023-11-19T05:19:05.032Z,31.42
2023-11-19T05:21:32.961Z,32.08
2023-11-19T05:24:00.837Z,34.03
2023-11-19T05:26:28.738Z,41.88
2023-11-19T05:28:56.788Z,34.30
2023-11-19T05:31:24.720Z,42.65
2023-11-19T05:33:54.068Z,32.53
2023-11-19T05:38:49.833Z,37.70
2023-11-19T05:41:17.645Z,39.90
2023-11-19T05:43:45.489Z,35.75
2023-11-19T05:48:46.590Z,42.35
2023-11-19T05:56:11.557Z,38.30
2023-11-19T05:58:41.324Z,37.58
2023-11-19T06:01:09.779Z,35.28
2023-11-19T06:03:38.357Z,32.00
2023-11-19T06:06:07.081Z,32.20
2023-11-19T06:08:36.533Z,34.30
2023-11-19T06:13:32.860Z,37.72
2023-11-19T06:16:00.767Z,32.22
2023-11-19T06:18:28.688Z,31.25
2023-11-19T06:20:56.632Z,34.17
2023-11-19T06:23:24.504Z,28.35
2023-11-19T06:25:53.696Z,35.15
2023-11-19T06:28:21.532Z,34.08
2023-11-19T06:30:49.788Z,30.10
2023-11-19T06:33:17.984Z,36.60
2023-11-19T06:35:45.907Z,32.40
2023-11-19T06:38:14.049Z,30.25
2023-11-19T06:40:42.339Z,32.33
2023-11-19T06:43:11.577Z,27.10
2023-11-19T06:45:39.502Z,27.88
2023-11-19T06:48:08.429Z,41.10
2023-11-19T06:50:36.300Z,46.05
2023-11-19T06:53:04.128Z,35.35
2023-11-19T06:58:10.993Z,27.77
2023-11-19T07:03:09.662Z,31.08
2023-11-19T07:05:39.514Z,33.47
2023-11-19T07:08:09.586Z,30.90
2023-11-19T07:10:37.457Z,30.08
2023-11-19T07:13:06.877Z,27.88
2023-11-19T07:18:03.971Z,32.60
2023-11-19T07:20:34.320Z,39.00
2023-11-19T07:23:02.204Z,39.35
2023-11-19T07:25:29.997Z,27.95
2023-11-19T07:27:58.180Z,31.00
2023-11-19T07:30:26.226Z,33.70
2023-11-19T07:32:55.386Z,31.90
2023-11-19T07:35:22.313Z,39.35
2023-11-19T07:37:51.279Z,32.25
2023-11-19T07:40:20.021Z,31.33
2023-11-19T07:42:47.829Z,30.77
2023-11-19T07:45:15.749Z,32.53
2023-11-19T07:47:43.895Z,33.42
2023-11-19T07:50:15.243Z,29.48
2023-11-19T07:52:43.315Z,36.35
2023-11-19T07:55:11.112Z,37.97
2023-11-19T07:57:39.027Z,36.72
2023-11-19T08:00:08.498Z,29.40
2023-11-19T08:02:37.666Z,34.90
2023-11-19T08:05:06.429Z,33.30
2023-11-19T08:07:35.642Z,36.35
2023-11-19T08:10:03.895Z,35.03
2023-11-19T08:12:32.212Z,30.83
2023-11-19T08:15:00.444Z,31.65
2023-11-19T08:17:28.315Z,43.10
2023-11-19T08:19:56.162Z,34.30
2023-11-19T08:22:24.452Z,34.22
2023-11-19T08:24:53.924Z,35.55
2023-11-19T08:27:27.670Z,41.83
2023-11-19T08:29:57.812Z,39.28
2023-11-19T08:32:25.787Z,40.85
2023-11-19T08:34:53.641Z,40.92
2023-11-19T08:37:22.177Z,34.47
2023-11-19T08:39:50.042Z,27.60
2023-11-19T08:42:19.360Z,34.00
2023-11-19T08:47:19.900Z,32.40
2023-11-19T08:50:03.684Z,32.17
2023-11-19T08:52:35.226Z,40.90
2023-11-19T08:55:03.493Z,29.77
2023-11-19T08:57:32.763Z,27.48
2023-11-19T09:00:00.716Z,36.65
2023-11-19T09:02:28.982Z,36.22
2023-11-19T09:04:56.929Z,38.63
2023-11-19T09:07:25.091Z,35.92
2023-11-19T09:09:52.911Z,36.72
2023-11-19T09:12:20.692Z,41.60
2023-11-19T09:14:50.428Z,30.42
2023-11-19T09:17:19.050Z,29.08
2023-11-19T09:19:46.880Z,38.88
2023-11-19T09:22:15.646Z,36.30
2023-11-19T09:24:45.084Z,27.63
2023-11-19T09:27:12.958Z,39.00
2023-11-19T09:29:40.832Z,32.33
2023-11-19T09:32:10.741Z,27.35
2023-11-19T09:34:38.535Z,34.33
2023-11-19T09:37:21.754Z,39.83
2023-11-19T09:39:50.006Z,28.10
2023-11-19T09:42:19.010Z,33.35
2023-11-19T09:44:48.405Z,38.08
2023-11-19T09:49:51.104Z,31.83
2023-11-19T09:52:19.215Z,31.80
2023-11-19T09:54:47.319Z,35.45
2023-11-19T09:57:19.000Z,44.22
2023-11-19T09:59:48.274Z,33.15
2023-11-19T10:02:18.569Z,30.60
2023-11-19T10:04:48.668Z,32.10
2023-11-19T10:07:16.563Z,31.05
2023-11-19T10:09:44.624Z,33.55
2023-11-19T10:12:12.806Z,31.10
2023-11-19T10:14:45.780Z,34.28
2023-11-19T10:17:13.851Z,23.30
2023-11-19T10:19:44.049Z,36.83
2023-11-19T10:22:13.800Z,28.48
2023-11-19T10:24:46.783Z,33.90
2023-11-19T10:27:18.066Z,62.85
2023-11-19T10:29:48.586Z,42.67
2023-11-19T10:32:25.586Z,35.67
2023-11-19T10:35:08.614Z,27.33
2023-11-19T10:37:39.111Z,33.72
2023-11-19T10:40:11.198Z,30.35
2023-11-19T10:42:42.028Z,28.15
2023-11-19T10:45:25.695Z,28.40
2023-11-19T10:47:56.905Z,33.97
2023-11-19T10:50:26.262Z,29.55
2023-11-19T10:55:29.182Z,31.15
2023-11-19T10:58:02.080Z,33.58
2023-11-19T11:00:32.921Z,32.45
2023-11-19T11:03:03.561Z,30.50
2023-11-19T11:05:35.597Z,30.65
2023-11-19T11:08:05.002Z,33.65
2023-11-19T11:13:07.454Z,32.65
2023-11-19T11:15:36.560Z,39.10
2023-11-19T11:18:05.849Z,41.78
2023-11-19T11:20:36.022Z,38.75
2023-11-19T11:23:39.428Z,38.47
2023-11-19T11:26:40.938Z,29.73
2023-11-19T11:29:18.011Z,27.67
2023-11-19T11:31:58.149Z,34.53
2023-11-19T11:34:57.004Z,32.15
2023-11-19T11:37:34.079Z,30.85
2023-11-19T11:40:06.352Z,29.33
2023-11-19T11:42:38.211Z,32.67
2023-11-19T11:45:10.702Z,29.65
2023-11-19T11:48:13.442Z,36.25
2023-11-19T11:51:09.665Z,28.27
2023-11-19T11:53:40.886Z,34.25
2023-11-19T11:56:13.482Z,32.58
2023-11-19T11:58:46.346Z,30.35
2023-11-19T12:01:22.041Z,37.03
2023-11-19T12:03:54.771Z,29.40
2023-11-19T12:06:25.422Z,27.55
2023-11-19T12:08:56.253Z,27.88
2023-11-19T12:11:28.316Z,28.02
2023-11-19T12:14:00.521Z,29.05
2023-11-19T12:16:30.391Z,30.10
2023-11-19T12:18:59.081Z,26.35
2023-11-19T12:21:31.988Z,24.02
2023-11-19T12:24:08.950Z,31.80
2023-11-19T12:26:39.103Z,25.17
2023-11-19T12:29:10.441Z,30.60
2023-11-19T12:31:39.782Z,21.85
2023-11-19T12:34:15.463Z,32.80
2023-11-19T12:36:55.861Z,29.42
2023-11-19T12:39:25.834Z,30.20
2023-11-19T12:42:00.421Z,26.48
2023-11-19T12:44:28.332Z,25.35
2023-11-19T12:47:03.752Z,29.73
2023-11-19T12:49:32.247Z,29.10
2023-11-19T12:52:02.236Z,31.90
2023-11-19T12:54:42.702Z,32.72
2023-11-19T12:57:10.651Z,30.75
2023-11-19T12:59:38.449Z,29.13
2023-11-19T13:02:07.578Z,22.75
2023-11-19T13:04:36.161Z,23.65
2023-11-19T13:07:05.865Z,22.67
2023-11-19T13:09:34.482Z,24.88
2023-11-19T13:12:15.189Z,31.58
2023-11-19T13:14:45.239Z,26.33
2023-11-19T13:17:15.841Z,23.58
2023-11-19T13:19:43.665Z,25.67
2023-11-19T13:22:11.814Z,28.40
2023-11-19T13:24:41.287Z,23.88
2023-11-19T13:27:11.138Z,28.63
2023-11-19T13:29:39.043Z,20.23
2023-11-19T13:32:07.690Z,30.95
2023-11-19T13:34:35.666Z,28.30
2023-11-19T13:37:03.970Z,26.98
2023-11-19T13:39:32.157Z,22.17
2023-11-19T13:44:33.409Z,27.02
2023-11-19T13:47:01.366Z,23.88
2023-11-19T13:49:29.534Z,31.27
2023-11-19T13:51:57.475Z,25.52
2023-11-19T13:54:25.490Z,25.38
2023-11-19T13:56:59.046Z,31.35
2023-11-19T13:59:27.016Z,25.52
2023-11-19T14:01:56.989Z,24.73
2023-11-19T14:04:25.089Z,29.77
2023-11-19T14:06:53.446Z,23.23
2023-11-19T14:09:21.529Z,25.33
2023-11-19T14:11:52.236Z,24.02
2023-11-19T14:14:20.189Z,18.40
2023-11-19T14:16:48.932Z,26.67
2023-11-19T14:19:18.371Z,23.38
2023-11-19T14:24:14.599Z,23.98
2023-11-19T14:26:42.648Z,25.77
2023-11-19T14:29:10.574Z,23.38
2023-11-19T14:31:38.564Z,21.73
2023-11-19T14:34:06.745Z,17.80
2023-11-19T14:36:36.282Z,19.70
2023-11-19T14:39:05.212Z,17.45
2023-11-19T14:41:33.168Z,20.15
2023-11-19T14:44:02.333Z,20.90
2023-11-19T14:46:30.203Z,23.90
2023-11-19T14:48:58.240Z,18.52
2023-11-19T14:51:26.139Z,18.77
2023-11-19T14:53:55.427Z,20.60
2023-11-19T14:56:24.912Z,21.50
2023-11-19T14:58:53.047Z,27.33
2023-11-19T15:01:21.201Z,27.98
2023-11-19T15:06:20.142Z,17.63
2023-11-19T15:08:48.180Z,21.40
2023-11-19T15:11:17.516Z,24.73
2023-11-19T15:16:15.047Z,17.13
2023-11-19T15:18:43.140Z,13.65
2023-11-19T15:21:12.736Z,21.75
2023-11-19T15:23:41.788Z,19.35
2023-11-19T15:26:11.554Z,20.50
2023-11-19T15:28:40.931Z,17.60
2023-11-19T15:31:08.918Z,21.27
2023-11-19T15:33:36.840Z,22.83
2023-11-19T15:36:08.746Z,23.27
2023-11-19T15:38:52.922Z,23.92
2023-11-19T15:41:21.454Z,19.08
2023-11-19T15:43:51.028Z,14.45
2023-11-19T15:46:19.108Z,22.33
2023-11-19T15:48:47.014Z,23.48
2023-11-19T15:51:14.886Z,18.27
2023-11-19T15:53:43.497Z,22.60
2023-11-19T15:56:11.859Z,18.85
2023-11-19T15:58:40.611Z,21.67
2023-11-19T16:01:10.341Z,22.85
2023-11-19T16:06:11.413Z,22.10
2023-11-19T16:08:39.754Z,23.58
2023-11-19T16:11:09.174Z,20.23
2023-11-19T16:16:05.875Z,19.25
2023-11-19T16:18:35.072Z,29.13
2023-11-19T16:21:03.488Z,23.38
2023-11-19T16:23:31.485Z,24.33
2023-11-19T16:25:59.354Z,23.75
2023-11-19T16:28:27.191Z,19.13
2023-11-19T16:30:55.015Z,19.38
2023-11-19T16:33:28.874Z,20.20
2023-11-19T16:36:00.497Z,23.00
2023-11-19T16:38:29.587Z,22.05
2023-11-19T16:40:59.330Z,19.83
2023-11-19T16:43:28.844Z,18.70
2023-11-19T16:45:56.986Z,22.55
2023-11-19T16:48:25.765Z,20.98
2023-11-19T16:53:27.197Z,20.25
2023-11-19T16:55:55.027Z,19.35
2023-11-19T16:58:23.792Z,25.65
2023-11-19T17:00:51.712Z,22.23
2023-11-19T17:03:19.861Z,24.17
2023-11-19T17:05:47.750Z,22.85
2023-11-19T17:08:15.645Z,22.08
2023-11-19T17:10:47.091Z,26.25
2023-11-19T17:13:15.724Z,21.00
2023-11-19T17:15:43.696Z,17.70
2023-11-19T17:18:11.806Z,21.88
2023-11-19T17:20:39.959Z,17.42
2023-11-19T17:23:09.573Z,13.05
2023-11-19T17:25:37.445Z,20.08
2023-11-19T17:28:09.092Z,19.65
2023-11-19T17:30:36.991Z,18.15
2023-11-19T17:33:05.967Z,13.95
2023-11-19T17:35:35.052Z,19.65
2023-11-19T17:38:03.475Z,13.60
2023-11-19T17:40:31.487Z,17.30
2023-11-19T17:42:59.389Z,14.60
2023-11-19T17:45:28.788Z,18.95
2023-11-19T17:50:25.474Z,16.23
2023-11-19T17:52:54.768Z,14.13
2023-11-19T17:55:22.730Z,17.90
2023-11-19T17:57:51.823Z,15.10
2023-11-19T18:00:20.215Z,19.23
2023-11-19T18:02:51.194Z,23.03
2023-11-19T18:05:21.492Z,16.88
2023-11-19T18:07:49.724Z,24.15
2023-11-19T18:10:18.405Z,19.05
2023-11-19T18:12:46.706Z,19.17
2023-11-19T18:15:15.528Z,21.63
2023-11-19T18:17:44.376Z,23.75
2023-11-19T18:20:16.222Z,31.45
2023-11-19T18:22:46.266Z,23.80
2023-11-19T18:25:16.282Z,21.30
2023-11-19T18:27:44.338Z,22.02
2023-11-19T18:30:14.754Z,18.02
2023-11-19T18:32:43.999Z,16.15
2023-11-19T18:35:13.719Z,19.52
2023-11-19T18:37:42.424Z,17.80
2023-11-19T18:40:12.730Z,18.63
2023-11-19T18:42:40.693Z,16.58
2023-11-19T18:45:10.052Z,16.13
2023-11-19T18:50:09.534Z,20.65
2023-11-19T18:52:38.859Z,16.90
2023-11-19T18:55:10.076Z,15.18
2023-11-19T18:57:37.892Z,19.20
2023-11-19T19:00:08.472Z,15.65
2023-11-19T19:02:36.648Z,13.25
2023-11-19T19:05:05.150Z,16.42
2023-11-19T19:07:33.306Z,13.73
2023-11-19T19:10:03.509Z,14.20
2023-11-19T19:12:31.988Z,13.80
2023-11-19T19:17:32.227Z,11.20
2023-11-19T19:20:02.178Z,13.15
2023-11-19T19:22:30.504Z,8.65
2023-11-19T19:24:58.740Z,13.63
2023-11-19T19:27:27.949Z,8.20
2023-11-19T19:29:55.774Z,12.88
2023-11-19T19:32:24.640Z,9.23
2023-11-19T19:34:54.455Z,10.45
2023-11-19T19:37:23.995Z,6.65
2023-11-19T19:39:52.032Z,10.75
2023-11-19T19:42:19.822Z,8.90
2023-11-19T19:44:49.082Z,6.90
2023-11-19T19:47:18.770Z,10.20
2023-11-19T19:49:46.658Z,13.85
2023-11-19T19:52:14.774Z,7.80
2023-11-19T19:54:42.618Z,9.20
2023-11-19T19:57:10.405Z,8.70
2023-11-19T19:59:38.836Z,10.80
2023-11-19T20:02:08.152Z,6.33
2023-11-19T20:07:24.458Z,7.32
2023-11-19T20:09:52.425Z,8.98
2023-11-19T20:12:20.343Z,7.38
2023-11-19T20:14:48.633Z,6.72
2023-11-19T20:17:18.072Z,8.00
2023-11-19T20:22:14.021Z,7.93
2023-11-19T20:24:41.869Z,6.07
2023-11-19T20:27:16.494Z,9.10
2023-11-19T20:29:47.044Z,6.32
2023-11-19T20:32:14.992Z,9.70
2023-11-19T20:34:44.201Z,6.82
2023-11-19T20:37:12.042Z,5.85
2023-11-19T20:39:40.315Z,6.70
2023-11-19T20:42:08.570Z,7.90
2023-11-19T20:44:36.462Z,4.93
2023-11-19T20:47:06.140Z,9.52
2023-11-19T20:49:34.049Z,5.68
2023-11-19T20:52:04.057Z,5.95
2023-11-19T20:57:02.616Z,5.45
2023-11-19T20:59:30.434Z,6.78
2023-11-19T21:01:58.535Z,5.20
2023-11-19T21:04:26.426Z,5.60
2023-11-19T21:06:55.318Z,7.15
2023-11-19T21:09:24.862Z,5.70
2023-11-19T21:11:52.800Z,4.82
2023-11-19T21:14:20.597Z,5.80
2023-11-19T21:16:48.656Z,5.53
2023-11-19T21:19:16.601Z,6.35
2023-11-19T21:21:44.846Z,5.00
2023-11-19T21:24:13.070Z,5.47
2023-11-19T21:26:43.132Z,6.40
2023-11-19T21:29:12.153Z,6.13
2023-11-19T21:34:10.779Z,6.70
2023-11-19T21:36:39.906Z,6.47
2023-11-19T21:39:09.763Z,7.45
2023-11-19T21:41:38.202Z,5.15
2023-11-19T21:44:08.673Z,5.97
2023-11-19T21:46:36.559Z,6.18
2023-11-19T21:49:04.439Z,4.63
2023-11-19T21:51:32.315Z,6.75
2023-11-19T21:54:00.925Z,6.03
2023-11-19T21:56:28.717Z,9.73
2023-11-19T21:58:56.799Z,6.15
2023-11-19T22:01:25.987Z,8.40
2023-11-19T22:03:54.215Z,12.57
2023-11-19T22:06:22.635Z,9.82
2023-11-19T22:08:50.474Z,10.30
2023-11-19T22:11:18.495Z,7.68
2023-11-19T22:13:46.322Z,10.32
2023-11-19T22:16:14.246Z,10.30
2023-11-19T22:18:43.816Z,10.00
2023-11-19T22:21:12.305Z,9.93
2023-11-19T22:23:40.146Z,12.53
2023-11-19T22:26:08.046Z,10.95
2023-11-19T22:28:37.916Z,10.70
2023-11-19T22:31:05.963Z,14.07
2023-11-19T22:33:34.202Z,11.57
2023-11-19T22:36:03.578Z,14.57
2023-11-19T22:40:59.127Z,13.45
2023-11-19T22:43:27.488Z,9.95
2023-11-19T22:45:55.436Z,9.75
2023-11-19T22:48:24.378Z,9.60
2023-11-19T22:50:52.211Z,13.45
2023-11-19T22:53:21.398Z,10.75
2023-11-19T22:55:49.235Z,11.07
2023-11-19T22:58:17.095Z,13.45
2023-11-19T23:00:46.870Z,13.50
2023-11-19T23:03:15.417Z,11.85
2023-11-19T23:05:43.274Z,10.27
2023-11-19T23:08:12.373Z,11.18
2023-11-19T23:10:41.573Z,9.20
2023-11-19T23:13:09.941Z,10.70
2023-11-19T23:15:37.838Z,15.32
2023-11-19T23:18:06.242Z,10.90
2023-11-19T23:20:34.083Z,14.52
2023-11-19T23:23:01.895Z,13.55
2023-11-19T23:25:29.712Z,13.90
2023-11-19T23:27:58.861Z,13.57
2023-11-19T23:30:26.753Z,15.45
2023-11-19T23:32:54.643Z,13.45
2023-11-19T23:35:24.392Z,19.00
2023-11-19T23:37:52.708Z,18.40
2023-11-19T23:40:20.807Z,15.27
2023-11-19T23:42:49.321Z,17.52
2023-11-19T23:45:20.471Z,19.70
2023-11-19T23:47:48.299Z,16.25
2023-11-19T23:50:16.249Z,17.35
2023-11-19T23:52:44.324Z,16.15
2023-11-19T23:55:12.393Z,14.50
2023-11-19T23:57:41.397Z,16.23
